Williston, ND

5:52 AM CST on February 09, 2016 (GMT -0600)
Sloulin International | | Change Station
CLOSE
Current Station
Airport
Location: Williston,
Elevation: 1906 ft
Nearby Weather Stations

Elev 1906 ft 48.17 °N, 103.64 °W | Updated 1 hour ago

Overcast
Overcast
27 °F
Feels Like 23 °F
N
4
Wind Variable Wind from SSW

Today
High -- | Low -- °F
--% Chance of Precip.
Yesterday
High -- | Low -- °F
Precip. -- in
Pressure 30.26 in
Visibility 10.0 miles
Clouds Overcast 10000 ft
Windchill 23 °F
Dew Point 22 °F
Humidity 81%
Rainfall 0.00 in
Snow Depth Not available.
8:11 AM 6:06 PM
New Moon, 1% visible
METAR KISN 091052Z AUTO 20003KT 10SM OVC100 M03/M06 A3018 RMK AO2 SLP246 T10281056
Pressure 30.26 in
Visibility 10.0 miles
Clouds Overcast 10000 ft
Windchill 23 °F
Dew Point 22 °F
Humidity 81%
Rainfall 0.00 in
Snow Depth Not available.
8:11 AM 6:06 PM
New Moon, 1% visible
METAR KISN 091052Z AUTO 20003KT 10SM OVC100 M03/M06 A3018 RMK AO2 SLP246 T10281056

10-Day Weather Forecast

Almanac

Astronomy

Feb. 09, 2016 Rise Set
Actual Time
Civil Twilight
Nautical Twilight
Astronomical Twilight
Moon
Length of Visible Light
Length of Day
Tomorrow will be .
, % of the Moon is Illuminated

Today's Extremes

State Highs State Lows

Community

WunderPhotos

Upload Photos

1,891,565 photos uploaded!

WunderBlog® & News

Nearby

Air Quality

  Air Quality AQ Index Pollutant
Not available.

Snow Depth

Station Depth Elevation

Earthquake Activity

City Distance Mag. Time & Date
Minimum magnitude displayed is 2.5.

Coastal Water Temperatures

Place Temperature

Stations

Nearby Weather Stations

Station Location Temp. Windchill Dew Point Humidity Wind Precip. Elev Updated Type
                   

Watches & Warnings

There are currently no watches in effect.